»·PEaware :: WAT802 KJAC-KBOI

WAT802 :: KJAC-KBOI

FLIGHT INFORMATION

Flight Status: Arrived
Operator:
Walker Air Transport
More flights by this operator :: More flights under this callsign
Pilot: Nate C. (33860)
Aircraft: BEECH AIRCRAFT SUPER KING AIR 350
(B350)
More flights by this aircraft type
Origin: KJAC Jackson Hole
United States
Destination: KBOI Boise Air Terminal/Gowen
United States
More flights between these airports :: More routes between these airports
Route: ALPIN2 IDA LIA BOI
File this flight plan on PilotEdge
Remarks:
Altitude:
(Current/Filed)
22,000ft
Speed:
(Current/Filed)
295kts
Departed: 13-Nov-21 12:07 PM
Arrived: 13-Nov-21 01:25 PM
Distance/Time
Traveled:
239nm/1:18
Distance/Time
To Go:
Arrived

Flight Plot

Page will automatically refresh every two minutes.

Flight plan parsing failed; only flown route is shown


Map Options




Map Legend


Flown Route
Filed Route
Departure Airport
Arrival Airport
Navaid (VOR, NDB)
Fix

Horizontal Profiles

Position Reports

Time Latitude Longitude Heading Altitude Ground
Speed
13-Nov-21 11:41 43.599513 -110.738589 109 6416ft 0kts
13-Nov-21 11:42 43.599513 -110.738589 109 6416ft 0kts
13-Nov-21 11:43 43.599513 -110.738589 109 6416ft 0kts
13-Nov-21 11:44 43.599513 -110.738589 109 6416ft 0kts
13-Nov-21 11:45 43.599513 -110.738589 109 6416ft 0kts
13-Nov-21 11:46 43.599513 -110.738589 109 6416ft 0kts
13-Nov-21 11:47 43.599513 -110.738589 109 6416ft 0kts
13-Nov-21 11:48 43.599513 -110.738589 109 6416ft 0kts
13-Nov-21 11:49 43.599513 -110.738589 109 6416ft 0kts
13-Nov-21 11:50 43.599513 -110.738589 109 6416ft 0kts
13-Nov-21 11:51 43.599513 -110.738589 109 6416ft 0kts
13-Nov-21 11:52 43.599513 -110.738589 109 6416ft 0kts
13-Nov-21 11:53 43.599513 -110.738589 109 6416ft 0kts
13-Nov-21 11:54 43.599513 -110.738589 109 6416ft 0kts
13-Nov-21 11:55 43.599513 -110.738589 109 6416ft 0kts
13-Nov-21 11:56 43.599513 -110.738589 109 6416ft 0kts
13-Nov-21 11:57 43.599513 -110.738589 109 6416ft 0kts
13-Nov-21 11:58 43.599919 -110.739139 289 6416ft 2kts
13-Nov-21 11:59 43.601756 -110.738884 19 6419ft 12kts
13-Nov-21 12:00 43.604769 -110.737409 17 6425ft 14kts
13-Nov-21 12:01 43.607319 -110.736172 18 6431ft 12kts
13-Nov-21 12:02 43.610460 -110.734643 19 6437ft 11kts
13-Nov-21 12:03 43.614177 -110.732835 19 6445ft 16kts
13-Nov-21 12:04 43.615012 -110.732655 320 6445ft 0kts
13-Nov-21 12:05 43.615277 -110.733560 284 6445ft 6kts
13-Nov-21 12:06 43.599412 -110.741618 206 6805ft 122kts
13-Nov-21 12:07 43.564268 -110.765364 206 8043ft 172kts
13-Nov-21 12:08 43.518213 -110.795171 207 9685ft 186kts
13-Nov-21 12:09 43.471383 -110.825409 211 11480ft 187kts
13-Nov-21 12:10 43.424215 -110.855858 214 13271ft 190kts
13-Nov-21 12:11 43.376428 -110.886650 217 15053ft 191kts
13-Nov-21 12:12 43.328269 -110.917638 219 16786ft 193kts
13-Nov-21 12:13 43.279885 -110.948738 221 18406ft 193kts
13-Nov-21 12:14 43.231483 -110.981173 241 19710ft 181kts
13-Nov-21 12:15 43.232447 -111.033769 293 21037ft 138kts
13-Nov-21 12:16 43.245642 -111.082246 295 22301ft 135kts
13-Nov-21 12:17 43.261385 -111.137765 295 22339ft 176kts
13-Nov-21 12:18 43.280518 -111.205381 294 22328ft 202kts
13-Nov-21 12:19 43.301965 -111.281383 294 22326ft 223kts
13-Nov-21 12:20 43.324831 -111.362693 294 22319ft 231kts
13-Nov-21 12:21 43.348069 -111.445572 294 22316ft 234kts
13-Nov-21 12:22 43.371462 -111.529277 293 22315ft 234kts
13-Nov-21 12:23 43.394741 -111.612880 294 22313ft 234kts
13-Nov-21 12:24 43.417873 -111.696228 293 22324ft 234kts
13-Nov-21 12:25 43.441105 -111.780210 293 22322ft 235kts
13-Nov-21 12:26 43.464260 -111.864201 293 22323ft 235kts
13-Nov-21 12:27 43.484882 -111.939257 293 22333ft 234kts
13-Nov-21 12:28 43.507775 -112.022841 293 22345ft 232kts
13-Nov-21 12:29 43.512819 -112.110979 269 22350ft 244kts
13-Nov-21 12:30 43.501140 -112.203501 269 22354ft 245kts
13-Nov-21 12:31 43.489240 -112.295878 269 22353ft 245kts
13-Nov-21 12:32 43.477225 -112.388439 269 22352ft 246kts
13-Nov-21 12:33 43.465071 -112.481465 269 22350ft 247kts
13-Nov-21 12:34 43.452803 -112.574783 269 22350ft 248kts
13-Nov-21 12:35 43.440405 -112.668415 268 22361ft 250kts
13-Nov-21 12:36 43.427821 -112.762896 268 22360ft 253kts
13-Nov-21 12:37 43.415017 -112.858339 268 22357ft 254kts
13-Nov-21 12:38 43.402068 -112.954226 268 22353ft 255kts
13-Nov-21 12:39 43.389013 -113.050287 268 22348ft 256kts
13-Nov-21 12:40 43.375880 -113.146262 268 22347ft 256kts
13-Nov-21 12:41 43.362593 -113.242764 268 22345ft 257kts
13-Nov-21 12:42 43.349235 -113.339094 268 22345ft 257kts
13-Nov-21 12:43 43.335821 -113.435258 268 22344ft 257kts
13-Nov-21 12:44 43.322309 -113.531481 268 22343ft 257kts
13-Nov-21 12:45 43.308688 -113.627869 268 22342ft 256kts
13-Nov-21 12:46 43.295004 -113.724090 268 22352ft 258kts
13-Nov-21 12:47 43.281199 -113.820546 268 22351ft 258kts
13-Nov-21 12:49 43.267281 -113.917378 268 22350ft 259kts
13-Nov-21 12:50 43.253231 -114.014520 268 22349ft 259kts
13-Nov-21 12:51 43.239039 -114.111470 267 22348ft 259kts
13-Nov-21 12:52 43.224798 -114.208472 267 22348ft 260kts
13-Nov-21 12:53 43.210462 -114.305537 267 22347ft 260kts
13-Nov-21 12:54 43.196022 -114.402717 267 22346ft 260kts
13-Nov-21 12:55 43.181502 -114.499842 267 22347ft 260kts
13-Nov-21 12:56 43.166895 -114.596930 267 22350ft 261kts
13-Nov-21 12:57 43.152128 -114.694497 266 22361ft 262kts
13-Nov-21 12:58 43.137218 -114.792422 266 22363ft 264kts
13-Nov-21 12:59 43.122148 -114.890772 266 22364ft 264kts
13-Nov-21 13:00 43.106898 -114.989904 265 21962ft 278kts
13-Nov-21 13:01 43.090201 -115.097462 264 20530ft 293kts
13-Nov-21 13:02 43.073186 -115.206433 263 19056ft 294kts
13-Nov-21 13:03 43.056378 -115.313329 262 17541ft 281kts
13-Nov-21 13:04 43.040012 -115.416731 262 16040ft 275kts
13-Nov-21 13:05 43.041572 -115.512085 312 15993ft 258kts
13-Nov-21 13:06 43.086049 -115.587853 304 15977ft 254kts
13-Nov-21 13:07 43.126532 -115.666187 302 15985ft 252kts
13-Nov-21 13:08 43.166909 -115.745060 302 15780ft 259kts
13-Nov-21 13:09 43.208199 -115.825948 302 14294ft 258kts
13-Nov-21 13:10 43.249110 -115.906327 302 12806ft 257kts
13-Nov-21 13:11 43.290028 -115.986945 302 11313ft 260kts
13-Nov-21 13:12 43.331819 -116.069524 303 9959ft 263kts
13-Nov-21 13:12 43.366655 -116.138509 303 9982ft 266kts
13-Nov-21 13:13 43.409013 -116.222625 303 9064ft 262kts
13-Nov-21 13:15 43.455851 -116.315910 304 7291ft 248kts
13-Nov-21 13:16 43.493751 -116.391615 304 5776ft 234kts
13-Nov-21 13:16 43.524664 -116.453522 305 4984ft 232kts
13-Nov-21 13:17 43.559561 -116.513462 347 5014ft 171kts
13-Nov-21 13:18 43.601057 -116.481765 39 4964ft 166kts
13-Nov-21 13:20 43.633716 -116.432662 97 4647ft 152kts
13-Nov-21 13:20 43.620013 -116.389854 112 4080ft 142kts
13-Nov-21 13:21 43.602938 -116.339413 114 4080ft 147kts
13-Nov-21 13:22 43.585987 -116.289528 114 3569ft 134kts
13-Nov-21 13:23 43.570967 -116.245401 114 2899ft 118kts
13-Nov-21 13:24 43.563897 -116.225368 163 2845ft 11kts
13-Nov-21 13:25 43.563243 -116.225615 210 2845ft 0kts
13-Nov-21 13:26 43.564258 -116.229582 294 2839ft 13kts
13-Nov-21 13:27 43.564572 -116.233961 245 2831ft 13kts
13-Nov-21 13:28 43.563836 -116.236175 176 2825ft 0kts

Navigation Log

Ident Type
Flight plan parsing failed, navigation log unavailable